Time;durP1;ratioP1;P1;durP2;ratioP2;P2;SDS_P1;SDS_P2;PMS_P1;PMS_P2;Temp;Humidity;BMP_temperature;BMP_pressure;BME280_temperature;BME280_humidity;BME280_pressure;Samples;Min_cycle;Max_cycle;Signal;HPM_P1;HPM_P2
2021/08/13 00:00:15;;;;;;;;;;;16.80;99.90;;;;;;5090666;28;19987;-82
2021/08/13 00:02:41;;;;;;;;;;;16.70;99.90;;;;;;5086403;28;19916;-75
2021/08/13 00:05:07;;;;;;;;;;;16.60;99.90;;;;;;5086592;28;19916;-77
2021/08/13 00:07:32;;;;;;;;;;;16.60;99.90;;;;;;5077341;28;19919;-75
2021/08/13 00:09:58;;;;;;;;;;;16.50;99.90;;;;;;5077770;28;19919;-77
2021/08/13 00:12:23;;;;;;;;;;;16.50;99.90;;;;;;5088596;28;19965;-76
2021/08/13 00:14:49;;;;;;;;;;;16.50;99.90;;;;;;5084303;28;19915;-77
2021/08/13 00:17:14;;;;;;;;;;;16.50;99.90;;;;;;5083535;28;19912;-76
2021/08/13 00:19:40;;;;;;;;;;;16.50;99.90;;;;;;5093929;28;19916;-75
2021/08/13 00:22:05;;;;;;;;;;;16.50;99.90;;;;;;5085850;28;19912;-76
2021/08/13 00:24:45;;;;;;;;;;;16.50;99.90;;;;;;5086241;28;19927;-81
2021/08/13 00:27:11;;;;;;;;;;;16.50;99.90;;;;;;5085365;28;19985;-76
2021/08/13 00:29:37;;;;;;;;;;;16.50;99.90;;;;;;5086477;28;20307;-77
2021/08/13 00:32:03;;;;;;;;;;;16.50;99.90;;;;;;5082992;28;19920;-77
2021/08/13 00:34:29;;;;;;;;;;;16.50;99.90;;;;;;5085586;28;21199;-75
2021/08/13 00:36:54;;;;;;;;;;;16.40;99.90;;;;;;5105722;27;19916;-77
2021/08/13 00:39:20;;;;;;;;;;;16.40;99.90;;;;;;5088619;28;20371;-76
2021/08/13 00:41:45;;;;;;;;;;;16.40;99.90;;;;;;5108760;28;19912;-78
2021/08/13 00:44:11;;;;;;;;;;;16.40;99.90;;;;;;5082633;28;20296;-75
2021/08/13 00:46:37;;;;;;;;;;;16.40;99.90;;;;;;5084423;28;19927;-76
2021/08/13 00:49:02;;;;;;;;;;;16.40;99.90;;;;;;5087830;28;19982;-77
2021/08/13 00:51:28;;;;;;;;;;;16.40;99.90;;;;;;5084761;28;19923;-78
2021/08/13 00:53:54;;;;;;;;;;;16.40;99.90;;;;;;5084452;28;19966;-77
2021/08/13 00:56:20;;;;;;;;;;;16.30;99.90;;;;;;5083020;28;19912;-78
2021/08/13 00:58:46;;;;;;;;;;;16.20;99.90;;;;;;5085782;28;20385;-76
2021/08/13 01:01:12;;;;;;;;;;;16.20;99.90;;;;;;5083927;28;19916;-76
2021/08/13 01:03:38;;;;;;;;;;;16.10;99.90;;;;;;5082385;28;20003;-76
2021/08/13 01:06:05;;;;;;;;;;;16.20;99.90;;;;;;5081968;28;19916;-76
2021/08/13 01:08:31;;;;;;;;;;;16.30;99.90;;;;;;5080225;28;20557;-81
2021/08/13 01:11:25;;;;;;;;;;;16.30;99.90;;;;;;5084407;28;19916;-76
2021/08/13 01:13:51;;;;;;;;;;;16.40;99.90;;;;;;5073612;28;19931;-76
2021/08/13 01:16:17;;;;;;;;;;;16.30;99.90;;;;;;5083695;28;20226;-76
2021/08/13 01:18:46;;;;;;;;;;;16.30;99.90;;;;;;5085456;28;19961;-77
2021/08/13 01:21:16;;;;;;;;;;;16.30;99.90;;;;;;5086265;28;19917;-78
2021/08/13 01:23:51;;;;;;;;;;;16.30;99.90;;;;;;5084004;28;19916;-77
2021/08/13 01:26:18;;;;;;;;;;;16.30;99.90;;;;;;5083971;28;20315;-77
2021/08/13 01:28:46;;;;;;;;;;;16.40;99.90;;;;;;5084523;28;19922;-79
2021/08/13 01:31:15;;;;;;;;;;;16.40;99.90;;;;;;5082253;28;20013;-80
2021/08/13 01:33:41;;;;;;;;;;;16.40;99.90;;;;;;5084593;28;19959;-76
2021/08/13 01:36:07;;;;;;;;;;;16.40;99.90;;;;;;5085595;28;19995;-82
2021/08/13 01:38:34;;;;;;;;;;;16.40;99.90;;;;;;5085192;28;19917;-76
2021/08/13 01:41:02;;;;;;;;;;;16.40;99.90;;;;;;5108458;28;19920;-76
2021/08/13 01:43:28;;;;;;;;;;;16.40;99.90;;;;;;5096835;28;19916;-81
2021/08/13 01:45:54;;;;;;;;;;;16.40;99.90;;;;;;5088948;28;19920;-76
2021/08/13 01:48:20;;;;;;;;;;;16.50;99.90;;;;;;5099565;28;20214;-77
2021/08/13 01:50:47;;;;;;;;;;;16.40;99.90;;;;;;5099884;28;19918;-76
2021/08/13 01:53:13;;;;;;;;;;;16.50;99.90;;;;;;5086661;28;19916;-77
2021/08/13 01:55:39;;;;;;;;;;;16.40;99.90;;;;;;5090364;28;19924;-77
2021/08/13 01:58:05;;;;;;;;;;;16.50;99.90;;;;;;5100499;28;20251;-77
2021/08/13 02:00:31;;;;;;;;;;;16.40;99.90;;;;;;5103166;28;19912;-77
2021/08/13 02:02:56;;;;;;;;;;;16.40;99.90;;;;;;5095793;28;19919;-77
2021/08/13 02:05:29;;;;;;;;;;;16.40;99.90;;;;;;5088116;28;20335;-76
2021/08/13 02:07:57;;;;;;;;;;;16.40;99.90;;;;;;5084729;28;20357;-76
2021/08/13 02:10:23;;;;;;;;;;;16.40;99.90;;;;;;5096105;28;19920;-75
2021/08/13 02:12:49;;;;;;;;;;;16.30;99.90;;;;;;5095264;28;19958;-76
2021/08/13 02:15:15;;;;;;;;;;;16.30;99.90;;;;;;5082479;28;19947;-77
2021/08/13 02:17:59;;;;;;;;;;;16.30;99.90;;;;;;5089158;28;20264;-76
2021/08/13 02:20:26;;;;;;;;;;;16.20;99.90;;;;;;5097278;28;20562;-76
2021/08/13 02:22:52;;;;;;;;;;;16.20;99.90;;;;;;5083888;28;20353;-76
2021/08/13 02:25:17;;;;;;;;;;;16.10;99.90;;;;;;5093883;28;19916;-77
2021/08/13 02:27:43;;;;;;;;;;;16.10;99.90;;;;;;5093563;28;20258;-76
2021/08/13 02:30:09;;;;;;;;;;;16.10;99.90;;;;;;5105886;28;19920;-76
2021/08/13 02:32:35;;;;;;;;;;;16.00;99.90;;;;;;5094495;28;20225;-76
2021/08/13 02:35:01;;;;;;;;;;;15.90;99.90;;;;;;5087441;28;19919;-76
2021/08/13 02:37:33;;;;;;;;;;;16.00;99.90;;;;;;5087189;28;20376;-75
2021/08/13 02:39:58;;;;;;;;;;;15.90;99.90;;;;;;5082345;28;20192;-80
2021/08/13 02:42:30;;;;;;;;;;;15.90;99.90;;;;;;5084169;28;19919;-76
2021/08/13 02:44:57;;;;;;;;;;;15.90;99.90;;;;;;5081720;28;20010;-76
2021/08/13 02:47:25;;;;;;;;;;;15.90;99.90;;;;;;5096879;28;19912;-76
2021/08/13 02:49:54;;;;;;;;;;;15.90;99.90;;;;;;5084114;28;19912;-77
2021/08/13 02:52:24;;;;;;;;;;;15.90;99.90;;;;;;5096634;28;19912;-80
2021/08/13 02:54:50;;;;;;;;;;;15.90;99.90;;;;;;5092199;28;19920;-79
2021/08/13 02:57:17;;;;;;;;;;;15.90;99.90;;;;;;5087896;28;20070;-77
2021/08/13 02:59:44;;;;;;;;;;;15.90;99.90;;;;;;5081276;28;20207;-76
2021/08/13 03:02:10;;;;;;;;;;;15.90;99.90;;;;;;5095325;28;19920;-76
2021/08/13 03:04:37;;;;;;;;;;;15.90;99.90;;;;;;5092572;28;20371;-76
2021/08/13 03:07:03;;;;;;;;;;;15.90;99.90;;;;;;5088533;28;19916;-76
2021/08/13 03:09:30;;;;;;;;;;;15.80;99.90;;;;;;5091509;28;19916;-77
2021/08/13 03:11:56;;;;;;;;;;;15.90;99.90;;;;;;5084958;28;19912;-77
2021/08/13 03:14:21;;;;;;;;;;;15.80;99.90;;;;;;5102374;28;19913;-78
2021/08/13 03:16:49;;;;;;;;;;;15.80;99.90;;;;;;5087559;28;19941;-76
2021/08/13 03:19:15;;;;;;;;;;;15.80;99.90;;;;;;5098638;28;19912;-76
2021/08/13 03:21:41;;;;;;;;;;;15.80;99.90;;;;;;5111276;28;19919;-81
2021/08/13 03:24:07;;;;;;;;;;;15.90;99.90;;;;;;5098470;28;20292;-76
2021/08/13 03:26:33;;;;;;;;;;;15.80;99.90;;;;;;5087429;28;19916;-79
2021/08/13 03:28:58;;;;;;;;;;;15.80;99.90;;;;;;5088708;28;19962;-77
2021/08/13 03:31:30;;;;;;;;;;;15.80;99.90;;;;;;5091260;28;19920;-79
2021/08/13 03:33:56;;;;;;;;;;;15.80;99.90;;;;;;5085980;28;19916;-77
2021/08/13 03:36:21;;;;;;;;;;;15.80;99.90;;;;;;5090545;28;19920;-80
2021/08/13 03:38:47;;;;;;;;;;;15.80;99.90;;;;;;5086286;28;19920;-77
2021/08/13 03:41:16;;;;;;;;;;;15.80;99.90;;;;;;5086635;28;19923;-77
2021/08/13 03:43:41;;;;;;;;;;;15.80;99.90;;;;;;5083282;28;20315;-77
2021/08/13 03:46:07;;;;;;;;;;;15.70;99.90;;;;;;5088052;28;19934;-77
2021/08/13 03:48:32;;;;;;;;;;;15.70;99.90;;;;;;5085110;28;19934;-76
2021/08/13 03:50:58;;;;;;;;;;;15.70;99.90;;;;;;5091820;28;20038;-76
2021/08/13 03:53:25;;;;;;;;;;;15.70;99.90;;;;;;5089015;28;19920;-80
2021/08/13 03:55:51;;;;;;;;;;;15.80;99.90;;;;;;5087866;28;19927;-77
2021/08/13 03:58:16;;;;;;;;;;;15.80;99.90;;;;;;5089846;28;19916;-76
2021/08/13 04:00:42;;;;;;;;;;;15.80;99.90;;;;;;5091801;28;19924;-77
2021/08/13 04:03:07;;;;;;;;;;;15.80;99.90;;;;;;5093106;28;19966;-79
2021/08/13 04:05:33;;;;;;;;;;;15.90;99.90;;;;;;5089117;28;19911;-77
2021/08/13 04:07:58;;;;;;;;;;;15.90;99.90;;;;;;5089879;28;19916;-76
2021/08/13 04:10:24;;;;;;;;;;;15.90;99.90;;;;;;5090022;28;19920;-77
2021/08/13 04:12:50;;;;;;;;;;;16.00;99.90;;;;;;5091803;28;19920;-81
2021/08/13 04:15:15;;;;;;;;;;;16.10;99.90;;;;;;5094339;28;19919;-77
2021/08/13 04:17:41;;;;;;;;;;;16.10;99.90;;;;;;5095379;28;19916;-78
2021/08/13 04:20:07;;;;;;;;;;;16.10;99.90;;;;;;5095930;28;19916;-77
2021/08/13 04:22:32;;;;;;;;;;;16.10;99.90;;;;;;5091529;28;19946;-79
2021/08/13 04:24:58;;;;;;;;;;;16.20;99.90;;;;;;5090707;28;19927;-77
2021/08/13 04:27:23;;;;;;;;;;;16.20;99.90;;;;;;5091576;28;19919;-77
2021/08/13 04:29:51;;;;;;;;;;;16.20;99.90;;;;;;5089177;28;19956;-78
2021/08/13 04:32:16;;;;;;;;;;;16.20;99.90;;;;;;5088689;28;19928;-78
2021/08/13 04:34:42;;;;;;;;;;;16.20;99.90;;;;;;5087250;28;19970;-78
2021/08/13 04:37:08;;;;;;;;;;;16.20;99.90;;;;;;5090994;28;20231;-77
2021/08/13 04:39:33;;;;;;;;;;;16.10;99.90;;;;;;5084905;28;19926;-79
2021/08/13 04:41:59;;;;;;;;;;;16.10;99.90;;;;;;5088308;28;20303;-79
2021/08/13 04:44:24;;;;;;;;;;;16.00;99.90;;;;;;5088749;28;20014;-80
2021/08/13 04:46:50;;;;;;;;;;;16.10;99.90;;;;;;5089810;28;19920;-80
2021/08/13 04:49:16;;;;;;;;;;;16.10;99.90;;;;;;5085778;28;19912;-80
2021/08/13 04:51:42;;;;;;;;;;;16.20;99.90;;;;;;5082477;28;20280;-78
2021/08/13 04:54:07;;;;;;;;;;;16.20;99.90;;;;;;5085750;28;19960;-78
2021/08/13 04:56:33;;;;;;;;;;;16.20;99.90;;;;;;5089548;28;20023;-78
2021/08/13 04:58:58;;;;;;;;;;;16.30;99.90;;;;;;5093461;28;20315;-78
2021/08/13 05:01:24;;;;;;;;;;;16.30;99.90;;;;;;5094987;28;20217;-80
2021/08/13 05:03:49;;;;;;;;;;;16.30;99.90;;;;;;5097098;28;19912;-78
2021/08/13 05:06:19;;;;;;;;;;;16.30;99.90;;;;;;5095819;28;20018;-78
2021/08/13 05:08:44;;;;;;;;;;;16.40;99.90;;;;;;5089050;28;20321;-79
2021/08/13 05:11:10;;;;;;;;;;;16.40;99.90;;;;;;5092236;28;20015;-82
2021/08/13 05:13:36;;;;;;;;;;;16.40;99.90;;;;;;5098270;28;19940;-79
2021/08/13 05:16:01;;;;;;;;;;;16.40;99.90;;;;;;5091728;28;19916;-78
2021/08/13 05:18:27;;;;;;;;;;;16.50;99.90;;;;;;5091119;28;19916;-79
2021/08/13 05:20:53;;;;;;;;;;;16.60;99.90;;;;;;5097483;28;19912;-78
2021/08/13 05:23:18;;;;;;;;;;;16.70;99.90;;;;;;5083449;28;19917;-78
2021/08/13 05:25:44;;;;;;;;;;;16.80;99.90;;;;;;5081727;28;19960;-77
2021/08/13 05:28:09;;;;;;;;;;;16.90;99.90;;;;;;5081121;28;19923;-79
2021/08/13 05:30:35;;;;;;;;;;;16.90;99.90;;;;;;5081793;28;20003;-78
2021/08/13 05:33:01;;;;;;;;;;;17.00;99.90;;;;;;5081765;28;19920;-79
2021/08/13 05:35:27;;;;;;;;;;;17.00;99.90;;;;;;5083104;28;20400;-78
2021/08/13 05:37:53;;;;;;;;;;;17.00;99.90;;;;;;5081603;28;19912;-79
2021/08/13 05:40:18;;;;;;;;;;;17.10;99.90;;;;;;5083453;28;20007;-78
2021/08/13 05:42:44;;;;;;;;;;;17.10;99.90;;;;;;5084934;28;19920;-79
2021/08/13 05:45:10;;;;;;;;;;;17.10;99.90;;;;;;5083946;28;19964;-78
2021/08/13 05:47:38;;;;;;;;;;;17.20;99.90;;;;;;5083232;28;19962;-80
2021/08/13 05:50:04;;;;;;;;;;;17.20;99.90;;;;;;5084372;28;20299;-78
2021/08/13 05:52:30;;;;;;;;;;;17.20;99.90;;;;;;5083479;28;19974;-76
2021/08/13 05:54:56;;;;;;;;;;;17.20;99.90;;;;;;5087193;28;20310;-79
2021/08/13 05:57:21;;;;;;;;;;;17.30;99.90;;;;;;5093072;28;20192;-79
2021/08/13 05:59:47;;;;;;;;;;;17.30;99.90;;;;;;5112247;28;19920;-77
2021/08/13 06:02:16;;;;;;;;;;;17.40;99.90;;;;;;5088687;28;19920;-78
2021/08/13 06:04:41;;;;;;;;;;;17.40;99.90;;;;;;5087973;28;19916;-79
2021/08/13 06:07:07;;;;;;;;;;;17.50;99.90;;;;;;5089557;28;20375;-78
2021/08/13 06:09:33;;;;;;;;;;;17.50;99.90;;;;;;5085407;28;19916;-79
2021/08/13 06:11:58;;;;;;;;;;;17.50;99.90;;;;;;5095679;28;19920;-78
2021/08/13 06:14:24;;;;;;;;;;;17.50;99.90;;;;;;5084514;28;19962;-78
2021/08/13 06:16:49;;;;;;;;;;;17.50;99.90;;;;;;5089697;28;20226;-79
2021/08/13 06:19:15;;;;;;;;;;;17.60;99.90;;;;;;5084726;28;20218;-81
2021/08/13 06:21:40;;;;;;;;;;;17.50;99.90;;;;;;5098215;28;19919;-82
2021/08/13 06:24:06;;;;;;;;;;;17.50;99.90;;;;;;5091303;28;20374;-78
2021/08/13 06:26:32;;;;;;;;;;;17.50;99.90;;;;;;5109142;28;19920;-78
2021/08/13 06:28:57;;;;;;;;;;;17.60;99.90;;;;;;5107744;28;19927;-82
2021/08/13 06:31:23;;;;;;;;;;;17.60;99.90;;;;;;5099382;28;20346;-79
2021/08/13 06:33:49;;;;;;;;;;;17.60;99.90;;;;;;5098359;28;19939;-80
2021/08/13 06:36:15;;;;;;;;;;;17.60;99.90;;;;;;5088760;28;19916;-78
2021/08/13 06:38:41;;;;;;;;;;;17.60;99.90;;;;;;5097336;28;19999;-79
2021/08/13 06:41:06;;;;;;;;;;;17.70;99.90;;;;;;5096866;28;19950;-80
2021/08/13 06:43:32;;;;;;;;;;;17.70;99.90;;;;;;5093135;28;19921;-79
2021/08/13 06:45:57;;;;;;;;;;;17.70;99.90;;;;;;5089037;28;20236;-80
2021/08/13 06:48:23;;;;;;;;;;;17.70;99.90;;;;;;5090479;28;19920;-79
2021/08/13 06:50:48;;;;;;;;;;;17.70;99.90;;;;;;5093995;28;20315;-79
2021/08/13 06:53:14;;;;;;;;;;;17.70;99.90;;;;;;5094890;28;20006;-79
2021/08/13 06:55:39;;;;;;;;;;;17.80;99.90;;;;;;5095384;28;19931;-78
2021/08/13 06:58:05;;;;;;;;;;;17.90;99.90;;;;;;5093340;28;20002;-78
2021/08/13 07:00:31;;;;;;;;;;;17.90;99.90;;;;;;5093046;28;19963;-79
2021/08/13 07:02:56;;;;;;;;;;;17.90;99.90;;;;;;5092354;28;19962;-81
2021/08/13 07:05:22;;;;;;;;;;;18.00;99.90;;;;;;5089777;28;19916;-80
2021/08/13 07:07:47;;;;;;;;;;;18.10;99.90;;;;;;5094863;28;19916;-80
2021/08/13 07:10:13;;;;;;;;;;;18.20;99.90;;;;;;5093081;28;19920;-79
2021/08/13 07:12:39;;;;;;;;;;;18.30;99.90;;;;;;5090267;28;20002;-78
2021/08/13 07:15:06;;;;;;;;;;;18.40;99.90;;;;;;5092720;28;19916;-82
2021/08/13 07:17:31;;;;;;;;;;;18.50;99.90;;;;;;5089799;28;19916;-78
2021/08/13 07:19:57;;;;;;;;;;;18.60;99.90;;;;;;5095313;28;19937;-79
2021/08/13 07:22:22;;;;;;;;;;;18.70;99.90;;;;;;5095207;28;19926;-80
2021/08/13 07:24:48;;;;;;;;;;;18.70;99.90;;;;;;5097299;28;19915;-78
2021/08/13 07:27:13;;;;;;;;;;;18.80;99.90;;;;;;5094342;28;20004;-81
2021/08/13 07:29:39;;;;;;;;;;;19.00;99.90;;;;;;5089472;28;19912;-78
2021/08/13 07:32:05;;;;;;;;;;;19.10;99.90;;;;;;5095709;28;19928;-77
2021/08/13 07:34:30;;;;;;;;;;;19.10;99.90;;;;;;5095861;28;20211;-79
2021/08/13 07:36:56;;;;;;;;;;;19.10;99.90;;;;;;5090919;28;19957;-78
2021/08/13 07:39:21;;;;;;;;;;;19.10;99.90;;;;;;5095426;28;19916;-79
2021/08/13 07:41:47;;;;;;;;;;;19.10;99.90;;;;;;5094893;28;19969;-81
2021/08/13 07:44:12;;;;;;;;;;;19.10;99.90;;;;;;5101589;28;19985;-85
2021/08/13 07:46:38;;;;;;;;;;;19.10;99.90;;;;;;5089434;28;19924;-82
2021/08/13 07:49:03;;;;;;;;;;;19.20;99.90;;;;;;5093383;28;19981;-81
2021/08/13 07:51:29;;;;;;;;;;;19.30;99.90;;;;;;5104890;28;20015;-83
2021/08/13 07:53:55;;;;;;;;;;;19.30;99.90;;;;;;5104425;28;19930;-79
2021/08/13 07:56:20;;;;;;;;;;;19.40;99.90;;;;;;5106257;28;19916;-80
2021/08/13 07:58:46;;;;;;;;;;;19.40;99.90;;;;;;5102870;28;20329;-81
2021/08/13 08:01:11;;;;;;;;;;;19.40;99.90;;;;;;5096414;28;19916;-78
2021/08/13 08:03:37;;;;;;;;;;;19.50;99.90;;;;;;5104825;28;19912;-79
2021/08/13 08:06:03;;;;;;;;;;;19.70;99.90;;;;;;5086162;28;20232;-81
2021/08/13 08:08:28;;;;;;;;;;;19.80;99.90;;;;;;5096135;28;20031;-80
2021/08/13 08:10:54;;;;;;;;;;;19.80;99.90;;;;;;5099875;28;20007;-83
2021/08/13 08:13:20;;;;;;;;;;;19.90;99.90;;;;;;5098681;28;19912;-85
2021/08/13 08:15:48;;;;;;;;;;;20.10;99.90;;;;;;5101916;28;21208;-81
2021/08/13 08:18:14;;;;;;;;;;;20.20;99.90;;;;;;5092466;28;20245;-80
2021/08/13 08:20:40;;;;;;;;;;;20.30;99.90;;;;;;5099764;28;19968;-81
2021/08/13 08:23:06;;;;;;;;;;;20.50;99.90;;;;;;5096912;28;19911;-85
2021/08/13 08:25:32;;;;;;;;;;;20.60;99.90;;;;;;5096283;28;20435;-79
2021/08/13 08:27:58;;;;;;;;;;;20.50;99.90;;;;;;5101448;28;19989;-83
2021/08/13 08:30:23;;;;;;;;;;;20.60;99.90;;;;;;5090929;28;19969;-80
2021/08/13 08:32:49;;;;;;;;;;;20.70;99.90;;;;;;5095978;28;19931;-79
2021/08/13 08:35:15;;;;;;;;;;;20.90;99.90;;;;;;5100033;28;19934;-82
2021/08/13 08:37:54;;;;;;;;;;;21.00;99.90;;;;;;5105177;28;20207;-82
2021/08/13 08:40:30;;;;;;;;;;;21.10;99.90;;;;;;5101840;28;20390;-81
2021/08/13 08:42:57;;;;;;;;;;;21.30;99.90;;;;;;5097895;28;19918;-86
2021/08/13 08:45:24;;;;;;;;;;;21.30;99.90;;;;;;5098863;28;20010;-80
2021/08/13 08:47:50;;;;;;;;;;;21.20;99.90;;;;;;5105773;28;19912;-79
2021/08/13 08:50:16;;;;;;;;;;;21.30;99.90;;;;;;5087466;28;19948;-80
2021/08/13 08:52:43;;;;;;;;;;;21.40;99.90;;;;;;5087435;28;19960;-82
2021/08/13 08:55:09;;;;;;;;;;;21.60;99.90;;;;;;5089267;28;19916;-80
2021/08/13 08:57:39;;;;;;;;;;;21.80;99.90;;;;;;5098028;28;19918;-80
2021/08/13 09:00:05;;;;;;;;;;;21.90;99.90;;;;;;5090164;28;19912;-84
2021/08/13 09:02:31;;;;;;;;;;;21.90;99.90;;;;;;5087482;28;20003;-77
2021/08/13 09:04:56;;;;;;;;;;;22.10;99.90;;;;;;5087823;28;20425;-76
2021/08/13 09:07:22;;;;;;;;;;;22.00;99.90;;;;;;5085456;28;20368;-79
2021/08/13 09:09:48;;;;;;;;;;;21.80;99.90;;;;;;5083621;28;19920;-79
2021/08/13 09:12:13;;;;;;;;;;;21.50;99.90;;;;;;5083731;28;19970;-78
2021/08/13 09:14:41;;;;;;;;;;;21.40;99.90;;;;;;5093870;28;20057;-79
2021/08/13 09:17:06;;;;;;;;;;;21.30;99.90;;;;;;5086272;28;20323;-78
2021/08/13 09:19:48;;;;;;;;;;;21.30;99.90;;;;;;5098136;28;20084;-79
2021/08/13 09:22:18;;;;;;;;;;;21.30;99.90;;;;;;5094585;28;19907;-78
2021/08/13 09:24:45;;;;;;;;;;;21.30;99.90;;;;;;5089376;28;19914;-79
2021/08/13 09:27:14;;;;;;;;;;;21.20;99.90;;;;;;5096665;28;19916;-80
2021/08/13 09:29:40;;;;;;;;;;;21.10;99.90;;;;;;5092344;28;19920;-78
2021/08/13 09:32:06;;;;;;;;;;;21.10;99.90;;;;;;5099622;28;19930;-79
2021/08/13 09:34:32;;;;;;;;;;;21.10;99.90;;;;;;5093590;28;19930;-78
2021/08/13 09:36:57;;;;;;;;;;;21.10;99.90;;;;;;5091531;28;19999;-78
2021/08/13 09:39:25;;;;;;;;;;;21.20;99.90;;;;;;5083676;28;20003;-78
2021/08/13 09:41:52;;;;;;;;;;;21.30;99.90;;;;;;5090129;28;19919;-79
2021/08/13 09:44:31;;;;;;;;;;;21.40;99.90;;;;;;5087784;28;19935;-78
2021/08/13 09:46:57;;;;;;;;;;;21.50;99.90;;;;;;5088408;28;20006;-78
2021/08/13 09:49:23;;;;;;;;;;;21.60;99.90;;;;;;5109727;28;20065;-82
2021/08/13 09:51:48;;;;;;;;;;;21.50;99.90;;;;;;5108405;28;19916;-77
2021/08/13 09:54:14;;;;;;;;;;;21.50;99.90;;;;;;5100753;28;19920;-79
2021/08/13 09:56:40;;;;;;;;;;;21.50;99.90;;;;;;5106632;28;19934;-78
2021/08/13 09:59:16;;;;;;;;;;;21.50;99.90;;;;;;5091295;28;19909;-78
2021/08/13 10:01:43;;;;;;;;;;;21.60;99.90;;;;;;5105483;28;19942;-81
2021/08/13 10:04:09;;;;;;;;;;;21.80;99.90;;;;;;5097822;28;20221;-78
2021/08/13 10:06:35;;;;;;;;;;;21.90;99.90;;;;;;5088381;28;19916;-78
2021/08/13 10:09:02;;;;;;;;;;;22.00;99.90;;;;;;5088893;28;19966;-79
2021/08/13 10:11:28;;;;;;;;;;;22.10;99.90;;;;;;5097044;28;19951;-78
2021/08/13 10:13:54;;;;;;;;;;;22.20;99.90;;;;;;5096167;28;19974;-82
2021/08/13 10:16:21;;;;;;;;;;;22.10;99.90;;;;;;5094296;28;20011;-80
2021/08/13 10:18:48;;;;;;;;;;;22.10;99.90;;;;;;5086123;28;19928;-80
2021/08/13 10:21:14;;;;;;;;;;;22.00;99.90;;;;;;5093091;28;19924;-83
2021/08/13 10:23:40;;;;;;;;;;;22.00;99.90;;;;;;5095103;28;19912;-81
2021/08/13 10:26:06;;;;;;;;;;;21.90;99.90;;;;;;5101318;28;20329;-84
2021/08/13 10:28:32;;;;;;;;;;;21.90;99.90;;;;;;5100872;28;20311;-81
2021/08/13 10:30:58;;;;;;;;;;;21.90;99.90;;;;;;5094323;28;19924;-81
2021/08/13 10:33:24;;;;;;;;;;;21.80;99.90;;;;;;5104999;28;19908;-79
2021/08/13 10:35:54;;;;;;;;;;;21.60;99.90;;;;;;5092186;28;19908;-79
2021/08/13 10:38:21;;;;;;;;;;;21.60;99.90;;;;;;5087913;28;19912;-78
2021/08/13 10:40:47;;;;;;;;;;;21.50;99.90;;;;;;5091026;28;19916;-78
2021/08/13 10:43:13;;;;;;;;;;;21.40;99.90;;;;;;5105467;28;19923;-77
2021/08/13 10:45:40;;;;;;;;;;;21.40;99.90;;;;;;5091792;28;20217;-77
2021/08/13 10:48:11;;;;;;;;;;;21.50;99.90;;;;;;5107609;28;19923;-83
2021/08/13 10:50:37;;;;;;;;;;;21.40;99.90;;;;;;5096812;28;19912;-78
2021/08/13 10:53:02;;;;;;;;;;;21.40;99.90;;;;;;5094662;28;20975;-77
2021/08/13 10:55:42;;;;;;;;;;;21.50;99.90;;;;;;5096101;28;19923;-80
2021/08/13 10:58:09;;;;;;;;;;;21.50;99.90;;;;;;5107235;28;19916;-80
2021/08/13 11:00:53;;;;;;;;;;;21.60;99.90;;;;;;5094128;28;19912;-78
2021/08/13 11:03:19;;;;;;;;;;;21.50;99.90;;;;;;5107399;28;19951;-79
2021/08/13 11:05:53;;;;;;;;;;;21.50;99.90;;;;;;5107383;28;19924;-83
2021/08/13 11:08:18;;;;;;;;;;;21.50;99.90;;;;;;5110945;28;20678;-78
2021/08/13 11:10:47;;;;;;;;;;;21.50;99.90;;;;;;5090826;28;19924;-80
2021/08/13 11:13:12;;;;;;;;;;;21.50;99.90;;;;;;5106999;28;19913;-78
2021/08/13 11:15:38;;;;;;;;;;;21.50;99.90;;;;;;5108852;28;19916;-78
2021/08/13 11:18:32;;;;;;;;;;;21.50;99.90;;;;;;5110443;28;19912;-81
2021/08/13 11:20:59;;;;;;;;;;;21.50;99.90;;;;;;5085405;28;19962;-79
2021/08/13 11:23:25;;;;;;;;;;;21.40;99.90;;;;;;5097803;28;19919;-81
2021/08/13 11:25:51;;;;;;;;;;;21.40;99.90;;;;;;5086320;28;19912;-81
2021/08/13 11:28:19;;;;;;;;;;;21.40;99.90;;;;;;5085138;28;20307;-78
2021/08/13 11:30:45;;;;;;;;;;;21.40;99.90;;;;;;5089657;28;20036;-77
2021/08/13 11:33:26;;;;;;;;;;;21.50;99.90;;;;;;5088858;28;19939;-83
2021/08/13 11:35:52;;;;;;;;;;;21.50;99.90;;;;;;5085886;28;19965;-75
2021/08/13 11:38:37;;;;;;;;;;;21.50;99.90;;;;;;5102663;28;19919;-78
2021/08/13 11:41:24;;;;;;;;;;;21.50;99.90;;;;;;5089919;28;19916;-78
2021/08/13 11:43:51;;;;;;;;;;;21.40;99.90;;;;;;5090476;28;21285;-78
2021/08/13 11:46:23;;;;;;;;;;;21.40;99.90;;;;;;5090671;28;19912;-78
2021/08/13 11:48:51;;;;;;;;;;;21.40;99.90;;;;;;5096756;28;19911;-77
2021/08/13 11:51:16;;;;;;;;;;;21.40;99.90;;;;;;5082805;28;20450;-79
2021/08/13 11:53:42;;;;;;;;;;;21.30;99.90;;;;;;5091272;28;19916;-78
2021/08/13 11:56:08;;;;;;;;;;;21.20;99.90;;;;;;5083808;28;20223;-82
2021/08/13 11:58:33;;;;;;;;;;;21.20;99.90;;;;;;5080198;28;20003;-85
2021/08/13 12:01:00;;;;;;;;;;;21.20;99.90;;;;;;5082694;28;19965;-79
2021/08/13 12:03:25;;;;;;;;;;;21.20;99.90;;;;;;5086865;28;19916;-80
2021/08/13 12:05:51;;;;;;;;;;;21.30;99.90;;;;;;5086955;28;19925;-85
2021/08/13 12:08:17;;;;;;;;;;;21.30;99.90;;;;;;5083384;28;19969;-80
2021/08/13 12:10:46;;;;;;;;;;;21.40;99.90;;;;;;5083292;28;19912;-79
2021/08/13 12:13:13;;;;;;;;;;;21.60;99.90;;;;;;5082853;28;20204;-77
2021/08/13 12:15:39;;;;;;;;;;;21.70;99.90;;;;;;5086817;28;19911;-79
2021/08/13 12:18:06;;;;;;;;;;;21.70;99.90;;;;;;5082473;28;19998;-78
2021/08/13 12:20:32;;;;;;;;;;;21.70;99.90;;;;;;5084611;28;19916;-77
2021/08/13 12:23:10;;;;;;;;;;;21.80;99.90;;;;;;5084248;28;19951;-78
2021/08/13 12:25:36;;;;;;;;;;;21.90;99.90;;;;;;5085938;28;20261;-77
2021/08/13 12:28:02;;;;;;;;;;;21.90;99.90;;;;;;5082952;28;19920;-78
2021/08/13 12:30:28;;;;;;;;;;;21.90;99.90;;;;;;5084510;28;19965;-78
2021/08/13 12:32:54;;;;;;;;;;;21.80;99.90;;;;;;5082575;28;20323;-78
2021/08/13 12:35:21;;;;;;;;;;;21.80;99.90;;;;;;5080543;28;19912;-76
2021/08/13 12:37:46;;;;;;;;;;;21.90;99.90;;;;;;5084893;28;19916;-82
2021/08/13 12:40:13;;;;;;;;;;;21.90;99.90;;;;;;5084452;28;20041;-78
2021/08/13 12:42:40;;;;;;;;;;;22.00;99.90;;;;;;5082404;28;20019;-78
2021/08/13 12:45:07;;;;;;;;;;;22.00;99.90;;;;;;5081155;28;19989;-80
2021/08/13 12:47:33;;;;;;;;;;;22.00;99.90;;;;;;5085833;28;19958;-79
2021/08/13 12:49:59;;;;;;;;;;;22.00;99.90;;;;;;5084206;28;19916;-77
2021/08/13 12:52:25;;;;;;;;;;;22.00;99.90;;;;;;5087572;28;19916;-76
2021/08/13 12:54:51;;;;;;;;;;;22.00;99.90;;;;;;5082585;28;20014;-77
2021/08/13 12:57:19;;;;;;;;;;;22.00;99.90;;;;;;5083873;28;19963;-79
2021/08/13 12:59:45;;;;;;;;;;;22.00;99.90;;;;;;5083532;28;19943;-81
2021/08/13 13:02:21;;;;;;;;;;;22.00;99.90;;;;;;5083010;28;19977;-81
2021/08/13 13:04:47;;;;;;;;;;;22.00;99.90;;;;;;5089206;28;19923;-78
2021/08/13 13:07:14;;;;;;;;;;;22.00;99.90;;;;;;5081475;28;19924;-78
2021/08/13 13:09:40;;;;;;;;;;;22.00;99.90;;;;;;5083428;28;20262;-79
2021/08/13 13:12:19;;;;;;;;;;;22.00;99.90;;;;;;5083421;28;20380;-80
2021/08/13 13:14:45;;;;;;;;;;;22.10;99.90;;;;;;5085756;28;19912;-79
2021/08/13 13:17:12;;;;;;;;;;;22.10;99.90;;;;;;5084567;28;20005;-79
2021/08/13 13:19:39;;;;;;;;;;;22.10;99.90;;;;;;5086941;28;19918;-78
2021/08/13 13:22:17;;;;;;;;;;;22.10;99.90;;;;;;5084134;28;19920;-79
2021/08/13 13:24:43;;;;;;;;;;;22.10;99.90;;;;;;5089022;28;19955;-79
2021/08/13 13:27:08;;;;;;;;;;;22.00;99.90;;;;;;5081124;28;20337;-80
2021/08/13 13:29:38;;;;;;;;;;;21.90;99.90;;;;;;5089366;28;19956;-80
2021/08/13 13:32:10;;;;;;;;;;;21.90;99.90;;;;;;5084980;28;19924;-79
2021/08/13 13:34:36;;;;;;;;;;;21.90;99.90;;;;;;5088184;28;19951;-82
2021/08/13 13:37:12;;;;;;;;;;;21.80;99.90;;;;;;5089074;28;20323;-82
2021/08/13 13:39:39;;;;;;;;;;;21.80;99.90;;;;;;5087261;28;19917;-79
2021/08/13 13:42:05;;;;;;;;;;;21.80;99.90;;;;;;5089610;28;19912;-80
2021/08/13 13:44:30;;;;;;;;;;;21.80;99.90;;;;;;5088390;28;19919;-79
2021/08/13 13:46:56;;;;;;;;;;;21.70;99.90;;;;;;5088262;28;19923;-77
2021/08/13 13:49:22;;;;;;;;;;;21.70;99.90;;;;;;5111668;27;20003;-81
2021/08/13 13:51:47;;;;;;;;;;;21.80;99.90;;;;;;5092961;28;19980;-81
2021/08/13 13:54:13;;;;;;;;;;;21.80;99.90;;;;;;5099666;28;19955;-77
2021/08/13 13:56:39;;;;;;;;;;;21.90;99.90;;;;;;5088820;28;19916;-79
2021/08/13 13:59:04;;;;;;;;;;;22.10;99.90;;;;;;5086220;28;19919;-84
2021/08/13 14:01:30;;;;;;;;;;;22.20;99.90;;;;;;5095376;28;19913;-78
2021/08/13 14:03:56;;;;;;;;;;;22.40;99.90;;;;;;5106000;28;20285;-77
2021/08/13 14:06:23;;;;;;;;;;;22.40;99.90;;;;;;5085002;28;19942;-83
2021/08/13 14:08:51;;;;;;;;;;;22.40;99.90;;;;;;5100770;28;20394;-81
2021/08/13 14:11:17;;;;;;;;;;;22.30;99.90;;;;;;5090683;28;20275;-81
2021/08/13 14:13:42;;;;;;;;;;;22.30;99.90;;;;;;5090984;28;19958;-79